Other Surface Observations
Issued by NWS Missoula, MT

Home | Current Version | Previous Version | Text Only | Print | Product List | Glossary On
Versions: 1 2 3 4 5 6 7 8 9 10 11 12 13 14 15 16 17 18 19 20 21 22 23 24 25 26 27 28 29 30 31 32 33 34 35 36 37 38 39 40 41 42 43 44 45 46 47 48 49 50
000
SXUS55 KMSO 030943
OSOMSO
MONTANA AWOS SUMMARY
NATIONAL WEATHER SERVICE MISSOULA MT
343 AM MDT MON AUG 3 2015

Montana AWOS Reports

LAUREL      |K6S8 030935Z AUTO 00000KT 40SM 17/05 A2999 RMK AO1 T01670050
TWIN BRIDGES|K7S1 030935Z AUTO 13005KT 25SM 15/01 A3001 RMK AO1 T01500006
ROUNDUP     |KRPX 030935Z AUTO 00000KT 40SM 16/07 A2993 RMK AO1 T01560067
MALTA       |KM75 030935Z AUTO 00000KT 40SM 16/09 A2998 RMK AO1 T01610089




USA.gov is the U.S. government's official web portal to all federal, state and local government web resources and services.